Terminal Aerodrome Forecast
Issued by NWS

Home | Current Version | Previous Version | Text Only | Print | Product List | Glossary On
Versions: 1 2 3 4 5 6 7 8 9 10 11 12 13 14 15 16 17
000
FTUS43 KDTX 202329
TAFMBS
TAF
KMBS 202329Z 2100/2124 00000KT P6SM BKN100
     FM210400 22003KT 5SM BR OVC025
     FM211200 22004KT P6SM OVC030=

USA.gov is the U.S. government's official web portal to all federal, state and local government web resources and services.